createdAt,value
2023-04-14T00:01:50.233Z,5.94
2023-04-14T00:04:18.460Z,5.97
2023-04-14T00:06:46.918Z,6.00
2023-04-14T00:09:16.474Z,6.04
2023-04-14T00:11:44.515Z,6.07
2023-04-14T00:14:14.101Z,6.08
2023-04-14T00:16:43.107Z,6.10
2023-04-14T00:19:11.340Z,6.06
2023-04-14T00:21:39.558Z,6.05
2023-04-14T00:24:11.637Z,6.03
2023-04-14T00:26:43.425Z,6.04
2023-04-14T00:29:11.482Z,6.08
2023-04-14T00:31:43.543Z,6.13
2023-04-14T00:34:39.568Z,6.15
2023-04-14T00:37:07.721Z,6.11
2023-04-14T00:39:50.939Z,6.04
2023-04-14T00:42:19.117Z,6.09
2023-04-14T00:44:48.168Z,6.06
2023-04-14T00:47:19.511Z,6.03
2023-04-14T00:49:47.841Z,6.00
2023-04-14T00:52:16.386Z,5.97
2023-04-14T00:54:47.563Z,5.95
2023-04-14T00:57:16.113Z,5.98
2023-04-14T00:59:44.286Z,5.99
2023-04-14T01:02:13.799Z,6.02
2023-04-14T01:04:53.468Z,6.05
2023-04-14T01:07:23.662Z,6.12
2023-04-14T01:10:02.042Z,6.15
2023-04-14T01:12:43.091Z,6.17
2023-04-14T01:15:18.648Z,6.11
2023-04-14T01:17:58.071Z,6.11
2023-04-14T01:20:32.311Z,6.04
2023-04-14T01:23:05.802Z,5.96
2023-04-14T01:25:59.077Z,5.88
2023-04-14T01:28:43.046Z,5.86
2023-04-14T01:31:27.130Z,5.89
2023-04-14T01:34:04.385Z,5.93
2023-04-14T01:36:39.377Z,6.00
2023-04-14T01:39:12.617Z,6.06
2023-04-14T01:41:46.285Z,6.09
2023-04-14T01:44:15.854Z,6.13
2023-04-14T01:46:48.056Z,6.14
2023-04-14T01:49:17.820Z,6.07
2023-04-14T01:51:49.238Z,6.05
2023-04-14T01:54:19.497Z,6.01
2023-04-14T01:56:49.669Z,6.03
2023-04-14T01:59:20.410Z,5.98
2023-04-14T02:01:53.863Z,5.95
2023-04-14T02:04:29.041Z,5.91
2023-04-14T02:07:00.185Z,5.89
2023-04-14T02:09:30.615Z,5.89
2023-04-14T02:11:59.814Z,5.87
2023-04-14T02:14:29.026Z,5.86
2023-04-14T02:17:00.696Z,5.87
2023-04-14T02:19:30.289Z,5.93
2023-04-14T02:22:00.880Z,6.00
2023-04-14T02:24:29.139Z,6.04
2023-04-14T02:27:08.902Z,6.07
2023-04-14T02:29:42.834Z,6.14
2023-04-14T02:32:21.526Z,6.13
2023-04-14T02:34:55.659Z,6.13
2023-04-14T02:37:28.863Z,6.12
2023-04-14T02:40:02.427Z,6.11
2023-04-14T02:42:37.253Z,6.10
2023-04-14T02:45:13.524Z,6.11
2023-04-14T02:47:48.333Z,6.14
2023-04-14T02:50:19.833Z,6.13
2023-04-14T02:52:51.530Z,6.11
2023-04-14T02:55:21.776Z,6.14
2023-04-14T02:57:51.664Z,6.19
2023-04-14T03:00:21.225Z,6.23
2023-04-14T03:02:54.165Z,6.26
2023-04-14T03:05:22.789Z,6.25
2023-04-14T03:07:54.431Z,6.23
2023-04-14T03:10:24.353Z,6.19
2023-04-14T03:12:58.863Z,6.21
2023-04-14T03:15:29.702Z,6.23
2023-04-14T03:18:00.926Z,6.28
2023-04-14T03:20:30.222Z,6.29
2023-04-14T03:23:01.888Z,6.28
2023-04-14T03:25:32.005Z,6.27
2023-04-14T03:28:03.901Z,6.26
2023-04-14T03:30:35.805Z,6.25
2023-04-14T03:33:16.016Z,6.25
2023-04-14T03:35:46.301Z,6.26
2023-04-14T03:38:17.583Z,6.27
2023-04-14T03:40:48.547Z,6.29
2023-04-14T03:43:23.608Z,6.30
2023-04-14T03:45:52.336Z,6.28
2023-04-14T03:48:29.965Z,6.37
2023-04-14T03:50:59.993Z,6.40
2023-04-14T03:53:31.138Z,6.44
2023-04-14T03:56:01.035Z,6.47
2023-04-14T03:58:32.665Z,6.51
2023-04-14T04:01:03.672Z,6.53
2023-04-14T04:03:38.725Z,6.58
2023-04-14T04:06:08.902Z,6.63
2023-04-14T04:08:38.194Z,6.69
2023-04-14T04:11:13.375Z,6.71
2023-04-14T04:13:43.551Z,6.75
2023-04-14T04:16:22.345Z,6.75
2023-04-14T04:18:52.042Z,6.80
2023-04-14T04:21:22.407Z,6.80
2023-04-14T04:23:54.638Z,6.81
2023-04-14T04:26:23.877Z,6.84
2023-04-14T04:28:52.951Z,6.86
2023-04-14T04:31:23.524Z,6.84
2023-04-14T04:33:53.202Z,6.79
2023-04-14T04:36:22.165Z,6.77
2023-04-14T04:38:50.690Z,6.77
2023-04-14T04:41:25.923Z,6.74
2023-04-14T04:43:54.755Z,6.75
2023-04-14T04:46:53.321Z,6.71
2023-04-14T04:49:23.253Z,6.70
2023-04-14T04:51:51.499Z,6.69
2023-04-14T04:54:20.330Z,6.72
2023-04-14T04:56:48.547Z,6.72
2023-04-14T04:59:16.674Z,6.71
2023-04-14T05:01:46.891Z,6.73
2023-04-14T05:04:15.708Z,6.75
2023-04-14T05:06:45.401Z,6.75
2023-04-14T05:09:13.450Z,6.75
2023-04-14T05:11:45.106Z,6.76
2023-04-14T05:14:13.640Z,6.77
2023-04-14T05:16:43.278Z,6.80
2023-04-14T05:19:11.915Z,6.80
2023-04-14T05:21:40.200Z,6.80
2023-04-14T05:24:11.534Z,6.79
2023-04-14T05:29:11.793Z,6.80
2023-04-14T05:31:39.950Z,6.82
2023-04-14T05:34:08.165Z,6.81
2023-04-14T05:36:36.263Z,6.78
2023-04-14T05:39:04.434Z,6.78
2023-04-14T05:41:34.180Z,6.77
2023-04-14T05:44:03.605Z,6.75
2023-04-14T05:46:32.055Z,6.76
2023-04-14T05:49:01.535Z,6.76
2023-04-14T05:51:31.177Z,6.78
2023-04-14T05:53:59.708Z,6.78
2023-04-14T05:56:28.636Z,6.77
2023-04-14T05:58:58.077Z,6.79
2023-04-14T06:01:27.957Z,6.79
2023-04-14T06:03:56.796Z,6.82
2023-04-14T06:06:25.171Z,6.85
2023-04-14T06:08:53.281Z,6.86
2023-04-14T06:11:22.636Z,6.88
2023-04-14T06:13:50.964Z,6.89
2023-04-14T06:16:21.818Z,6.88
2023-04-14T06:18:50.373Z,6.89
2023-04-14T06:21:18.633Z,6.90
2023-04-14T06:23:47.351Z,6.91
2023-04-14T06:26:15.540Z,6.92
2023-04-14T06:28:44.070Z,6.94
2023-04-14T06:31:14.314Z,6.93
2023-04-14T06:33:44.622Z,6.95
2023-04-14T06:36:13.887Z,6.96
2023-04-14T06:38:45.143Z,7.00
2023-04-14T06:41:13.295Z,7.05
2023-04-14T06:43:42.886Z,7.05
2023-04-14T06:46:11.378Z,7.06
2023-04-14T06:48:39.600Z,7.10
2023-04-14T06:51:10.922Z,7.09
2023-04-14T06:53:39.299Z,7.10
2023-04-14T06:56:09.971Z,7.13
2023-04-14T06:58:41.119Z,7.12
2023-04-14T07:01:09.372Z,7.17
2023-04-14T07:03:37.781Z,7.13
2023-04-14T07:06:10.385Z,7.14
2023-04-14T07:08:40.698Z,7.15
2023-04-14T07:11:10.343Z,7.12
2023-04-14T07:13:39.633Z,7.12
2023-04-14T07:16:09.250Z,7.13
2023-04-14T07:18:37.526Z,7.13
2023-04-14T07:21:06.247Z,7.13
2023-04-14T07:23:36.688Z,7.13
2023-04-14T07:26:04.872Z,7.18
2023-04-14T07:28:33.659Z,7.19
2023-04-14T07:31:10.036Z,7.23
2023-04-14T07:33:38.921Z,7.22
2023-04-14T07:36:08.111Z,7.24
2023-04-14T07:38:39.336Z,7.21
2023-04-14T07:41:08.444Z,7.20
2023-04-14T07:43:37.104Z,7.19
2023-04-14T07:46:06.744Z,7.22
2023-04-14T07:48:35.988Z,7.28
2023-04-14T07:51:07.805Z,7.27
2023-04-14T07:53:42.352Z,7.28
2023-04-14T07:56:20.068Z,7.31
2023-04-14T07:58:48.311Z,7.39
2023-04-14T08:01:17.086Z,7.42
2023-04-14T08:03:45.686Z,7.43
2023-04-14T08:06:14.477Z,7.42
2023-04-14T08:08:44.133Z,7.41
2023-04-14T08:11:15.487Z,7.42
2023-04-14T08:13:47.869Z,7.43
2023-04-14T08:16:17.912Z,7.41
2023-04-14T08:18:46.685Z,7.41
2023-04-14T08:21:15.345Z,7.49
2023-04-14T08:23:44.919Z,7.55
2023-04-14T08:26:13.746Z,7.63
2023-04-14T08:28:41.994Z,7.70
2023-04-14T08:31:10.762Z,7.78
2023-04-14T08:33:38.998Z,7.81
2023-04-14T08:36:12.008Z,7.84
2023-04-14T08:38:40.724Z,7.92
2023-04-14T08:41:11.292Z,8.04
2023-04-14T08:43:39.474Z,8.15
2023-04-14T08:46:11.120Z,8.23
2023-04-14T08:48:40.950Z,8.32
2023-04-14T08:51:20.304Z,8.30
2023-04-14T08:53:49.643Z,8.30
2023-04-14T08:56:23.085Z,8.29
2023-04-14T08:58:51.933Z,8.27
2023-04-14T09:01:20.888Z,8.26
2023-04-14T09:03:50.141Z,8.26
2023-04-14T09:06:19.852Z,8.21
2023-04-14T09:08:48.330Z,8.27
2023-04-14T09:11:17.382Z,8.29
2023-04-14T09:13:47.840Z,8.28
2023-04-14T09:16:18.561Z,8.33
2023-04-14T09:18:47.578Z,8.30
2023-04-14T09:21:50.856Z,8.33
2023-04-14T09:24:30.258Z,8.44
2023-04-14T09:26:59.543Z,8.47
2023-04-14T09:29:29.538Z,8.56
2023-04-14T09:31:58.102Z,8.64
2023-04-14T09:34:26.722Z,8.66
2023-04-14T09:37:03.583Z,8.70
2023-04-14T09:39:32.266Z,8.81
2023-04-14T09:42:00.611Z,8.83
2023-04-14T09:44:32.045Z,8.93
2023-04-14T09:47:05.809Z,8.98
2023-04-14T09:49:34.764Z,8.91
2023-04-14T09:52:05.907Z,8.86
2023-04-14T09:54:34.223Z,8.92
2023-04-14T09:57:03.250Z,8.96
2023-04-14T09:59:35.089Z,9.03
2023-04-14T10:02:06.833Z,9.10
2023-04-14T10:04:36.746Z,9.34
2023-04-14T10:07:07.979Z,9.64
2023-04-14T10:09:38.606Z,9.93
2023-04-14T10:12:14.853Z,10.13
2023-04-14T10:14:45.589Z,10.23
2023-04-14T10:17:14.862Z,10.22
2023-04-14T10:19:43.000Z,10.21
2023-04-14T10:22:11.613Z,10.26
2023-04-14T10:24:41.760Z,10.32
2023-04-14T10:27:09.994Z,10.19
2023-04-14T10:29:41.169Z,10.08
2023-04-14T10:32:12.207Z,10.00
2023-04-14T10:34:54.848Z,9.86
2023-04-14T10:37:23.601Z,9.76
2023-04-14T10:39:57.057Z,9.73
2023-04-14T10:42:25.440Z,9.74
2023-04-14T10:45:07.826Z,9.74
2023-04-14T10:47:42.001Z,9.59
2023-04-14T10:50:14.846Z,9.44
2023-04-14T10:52:51.238Z,9.41
2023-04-14T10:55:24.617Z,9.40
2023-04-14T10:57:54.649Z,9.41
2023-04-14T11:00:25.197Z,9.36
2023-04-14T11:03:00.429Z,9.34
2023-04-14T11:05:28.691Z,9.33
2023-04-14T11:08:01.460Z,9.41
2023-04-14T11:10:33.853Z,9.41
2023-04-14T11:13:07.244Z,9.37
2023-04-14T11:15:51.791Z,9.29
2023-04-14T11:18:34.011Z,9.32
2023-04-14T11:21:06.845Z,9.29
2023-04-14T11:23:36.597Z,9.14
2023-04-14T11:26:07.136Z,8.99
2023-04-14T11:28:46.359Z,8.80
2023-04-14T11:31:16.913Z,8.76
2023-04-14T11:33:46.828Z,8.70
2023-04-14T11:36:15.670Z,8.66
2023-04-14T11:38:45.837Z,8.67
2023-04-14T11:41:16.800Z,8.67
2023-04-14T11:43:48.993Z,8.67
2023-04-14T11:46:20.676Z,8.74
2023-04-14T11:48:55.603Z,8.71
2023-04-14T11:51:30.743Z,8.65
2023-04-14T11:54:01.526Z,8.60
2023-04-14T11:56:32.387Z,8.54
2023-04-14T11:59:02.161Z,8.50
2023-04-14T12:01:31.219Z,8.44
2023-04-14T12:04:01.480Z,8.46
2023-04-14T12:06:29.897Z,8.42
2023-04-14T12:09:03.619Z,8.39
2023-04-14T12:11:31.831Z,8.39
2023-04-14T12:13:59.998Z,8.38
2023-04-14T12:16:28.286Z,8.31
2023-04-14T12:18:58.505Z,8.28
2023-04-14T12:21:28.092Z,8.20
2023-04-14T12:23:56.470Z,8.14
2023-04-14T12:26:27.125Z,8.12
2023-04-14T12:28:58.960Z,8.17
2023-04-14T12:31:31.357Z,8.19
2023-04-14T12:34:04.319Z,8.15
2023-04-14T12:36:48.843Z,8.15
2023-04-14T12:39:18.770Z,8.22
2023-04-14T12:41:49.885Z,8.33
2023-04-14T12:44:19.810Z,8.36
2023-04-14T12:46:55.363Z,8.39
2023-04-14T12:49:37.891Z,8.41
2023-04-14T12:52:08.647Z,8.43
2023-04-14T12:54:51.921Z,8.42
2023-04-14T12:57:21.778Z,8.48
2023-04-14T12:59:50.559Z,8.38
2023-04-14T13:02:18.881Z,8.37
2023-04-14T13:04:49.830Z,8.32
2023-04-14T13:07:20.849Z,8.28
2023-04-14T13:09:49.199Z,8.17
2023-04-14T13:12:17.493Z,8.11
2023-04-14T13:14:45.882Z,8.04
2023-04-14T13:17:15.967Z,7.98
2023-04-14T13:19:45.905Z,7.95
2023-04-14T13:22:14.533Z,7.93
2023-04-14T13:24:44.716Z,7.80
2023-04-14T13:27:12.928Z,7.75
2023-04-14T13:29:42.621Z,7.72
2023-04-14T13:32:13.559Z,7.68
2023-04-14T13:34:43.548Z,7.72
2023-04-14T13:37:11.828Z,7.75
2023-04-14T13:39:40.204Z,7.80
2023-04-14T13:42:18.690Z,7.80
2023-04-14T13:44:48.127Z,7.86
2023-04-14T13:47:19.146Z,7.85
2023-04-14T13:49:47.365Z,7.79
2023-04-14T13:52:15.712Z,7.72
2023-04-14T13:54:44.262Z,7.62
2023-04-14T13:57:12.800Z,7.52
2023-04-14T13:59:43.089Z,7.48
2023-04-14T14:02:11.526Z,7.41
2023-04-14T14:04:39.766Z,7.41
2023-04-14T14:07:08.000Z,7.42
2023-04-14T14:09:36.120Z,7.40
2023-04-14T14:12:05.191Z,7.41
2023-04-14T14:14:33.355Z,7.42
2023-04-14T14:17:02.890Z,7.41
2023-04-14T14:19:30.974Z,7.36
2023-04-14T14:21:59.186Z,7.35
2023-04-14T14:24:27.404Z,7.36
2023-04-14T14:26:56.690Z,7.32
2023-04-14T14:29:24.869Z,7.29
2023-04-14T14:31:53.152Z,7.29
2023-04-14T14:34:22.891Z,7.27
2023-04-14T14:36:51.056Z,7.28
2023-04-14T14:39:19.822Z,7.26
2023-04-14T14:41:49.718Z,7.26
2023-04-14T14:44:18.510Z,7.25
2023-04-14T14:46:47.320Z,7.20
2023-04-14T14:49:15.691Z,7.14
2023-04-14T14:51:45.520Z,7.09
2023-04-14T14:54:13.970Z,7.04
2023-04-14T14:56:42.268Z,7.06
2023-04-14T14:59:10.595Z,7.07
2023-04-14T15:01:38.778Z,7.07
2023-04-14T15:04:07.786Z,7.12
2023-04-14T15:06:37.395Z,7.14
2023-04-14T15:09:07.628Z,7.20
2023-04-14T15:11:35.932Z,7.23
2023-04-14T15:14:04.333Z,7.25
2023-04-14T15:16:33.033Z,7.27
2023-04-14T15:19:01.260Z,7.23
2023-04-14T15:21:29.414Z,7.23
2023-04-14T15:23:57.483Z,7.27
2023-04-14T15:26:27.347Z,7.23
2023-04-14T15:28:55.485Z,7.19
2023-04-14T15:31:23.782Z,7.18
2023-04-14T15:33:52.510Z,7.21
2023-04-14T15:36:21.654Z,7.21
2023-04-14T15:38:50.780Z,7.24
2023-04-14T15:41:19.141Z,7.20
2023-04-14T15:43:50.744Z,7.17
2023-04-14T15:46:20.345Z,7.13
2023-04-14T15:48:48.499Z,7.14
2023-04-14T15:51:16.667Z,7.19
2023-04-14T15:53:44.743Z,7.23
2023-04-14T15:56:13.093Z,7.21
2023-04-14T15:58:41.537Z,7.20
2023-04-14T16:01:11.065Z,7.15
2023-04-14T16:03:39.246Z,7.13
2023-04-14T16:06:08.284Z,7.12
2023-04-14T16:08:36.422Z,7.08
2023-04-14T16:11:04.989Z,7.01
2023-04-14T16:13:33.202Z,7.01
2023-04-14T16:16:01.354Z,6.99
2023-04-14T16:18:31.168Z,6.95
2023-04-14T16:20:59.341Z,6.93
2023-04-14T16:23:30.548Z,6.89
2023-04-14T16:25:58.749Z,6.87
2023-04-14T16:28:27.259Z,6.86
2023-04-14T16:30:55.493Z,6.86
2023-04-14T16:33:24.667Z,6.86
2023-04-14T16:35:54.107Z,6.84
2023-04-14T16:38:24.361Z,6.78
2023-04-14T16:40:57.410Z,6.75
2023-04-14T16:43:28.071Z,6.73
2023-04-14T16:46:02.190Z,6.67
2023-04-14T16:48:30.820Z,6.64
2023-04-14T16:51:05.810Z,6.60
2023-04-14T16:53:34.735Z,6.58
2023-04-14T16:56:07.308Z,6.54
2023-04-14T16:58:36.602Z,6.49
2023-04-14T17:01:06.150Z,6.48
2023-04-14T17:03:34.803Z,6.46
2023-04-14T17:06:04.983Z,6.46
2023-04-14T17:08:33.757Z,6.41
2023-04-14T17:11:02.293Z,6.38
2023-04-14T17:13:30.798Z,6.36
2023-04-14T17:16:08.110Z,6.39
2023-04-14T17:18:37.739Z,6.35
2023-04-14T17:21:07.797Z,6.32
2023-04-14T17:23:37.135Z,6.29
2023-04-14T17:26:05.841Z,6.27
2023-04-14T17:28:35.070Z,6.24
2023-04-14T17:31:05.091Z,6.20
2023-04-14T17:33:33.481Z,6.22
2023-04-14T17:36:01.754Z,6.20
2023-04-14T17:38:34.914Z,6.20
2023-04-14T17:41:04.467Z,6.18
2023-04-14T17:43:32.775Z,6.19
2023-04-14T17:46:00.919Z,6.18
2023-04-14T17:48:29.370Z,6.23
2023-04-14T17:50:57.446Z,6.24
2023-04-14T17:53:25.659Z,6.20
2023-04-14T17:55:56.104Z,6.17
2023-04-14T17:58:26.393Z,6.17
2023-04-14T18:00:54.878Z,6.17
2023-04-14T18:03:23.467Z,6.16
2023-04-14T18:05:51.961Z,6.14
2023-04-14T18:08:20.520Z,6.13
2023-04-14T18:10:48.738Z,6.13
2023-04-14T18:13:18.347Z,6.13
2023-04-14T18:15:47.952Z,6.15
2023-04-14T18:18:18.605Z,6.16
2023-04-14T18:20:46.908Z,6.17
2023-04-14T18:23:15.489Z,6.18
2023-04-14T18:28:14.888Z,6.18
2023-04-14T18:30:44.450Z,6.17
2023-04-14T18:33:13.109Z,6.18
2023-04-14T18:35:41.741Z,6.19
2023-04-14T18:38:09.850Z,6.19
2023-04-14T18:40:41.759Z,6.22
2023-04-14T18:43:11.268Z,6.24
2023-04-14T18:45:39.379Z,6.21
2023-04-14T18:48:10.183Z,6.22
2023-04-14T18:50:38.252Z,6.23
2023-04-14T18:53:06.723Z,6.21
2023-04-14T18:55:45.088Z,6.18
2023-04-14T18:58:24.644Z,6.16
2023-04-14T19:00:52.780Z,6.13
2023-04-14T19:03:23.782Z,6.13
2023-04-14T19:05:53.025Z,6.10
2023-04-14T19:08:21.653Z,6.07
2023-04-14T19:10:50.060Z,6.03
2023-04-14T19:13:19.003Z,5.98
2023-04-14T19:15:47.154Z,5.92
2023-04-14T19:18:16.898Z,5.87
2023-04-14T19:20:47.700Z,5.83
2023-04-14T19:23:15.897Z,5.82
2023-04-14T19:25:44.136Z,5.78
2023-04-14T19:28:16.702Z,5.77
2023-04-14T19:30:45.923Z,5.74
2023-04-14T19:33:15.599Z,5.74
2023-04-14T19:35:45.327Z,5.73
2023-04-14T19:38:15.677Z,5.73
2023-04-14T19:40:48.968Z,5.75
2023-04-14T19:43:19.615Z,5.77
2023-04-14T19:45:52.290Z,5.78
2023-04-14T19:48:23.760Z,5.77
2023-04-14T19:50:53.343Z,5.78
2023-04-14T19:53:23.714Z,5.78
2023-04-14T19:55:53.631Z,5.76
2023-04-14T19:58:22.185Z,5.78
2023-04-14T20:00:52.742Z,5.79
2023-04-14T20:03:21.297Z,5.80
2023-04-14T20:05:52.767Z,5.82
2023-04-14T20:08:22.966Z,5.82
2023-04-14T20:10:54.117Z,5.84
2023-04-14T20:13:23.836Z,5.85
2023-04-14T20:15:55.132Z,5.88
2023-04-14T20:18:23.778Z,5.90
2023-04-14T20:20:52.789Z,5.91
2023-04-14T20:23:23.322Z,5.94
2023-04-14T20:25:51.754Z,5.95
2023-04-14T20:28:23.238Z,5.94
2023-04-14T20:30:53.812Z,5.96
2023-04-14T20:33:23.014Z,6.00
2023-04-14T20:35:54.226Z,6.01
2023-04-14T20:38:24.292Z,6.02
2023-04-14T20:40:53.719Z,6.02
2023-04-14T20:43:23.481Z,6.03
2023-04-14T20:45:53.339Z,6.06
2023-04-14T20:48:21.925Z,6.06
2023-04-14T20:50:50.852Z,6.09
2023-04-14T20:53:22.103Z,6.09
2023-04-14T20:55:52.600Z,6.11
2023-04-14T20:58:21.082Z,6.13
2023-04-14T21:00:49.207Z,6.15
2023-04-14T21:03:17.421Z,6.19
2023-04-14T21:05:46.368Z,6.18
2023-04-14T21:08:20.013Z,6.18
2023-04-14T21:11:16.319Z,6.18
2023-04-14T21:15:26.846Z,6.18
2023-04-14T21:16:26.015Z,6.18
2023-04-14T21:18:54.097Z,6.20
2023-04-14T21:21:22.528Z,6.20
2023-04-14T21:23:50.875Z,6.20
2023-04-14T21:26:21.171Z,6.21
2023-04-14T21:28:50.968Z,6.21
2023-04-14T21:31:19.076Z,6.21
2023-04-14T21:33:47.353Z,6.21
2023-04-14T21:36:15.733Z,6.22
2023-04-14T21:38:43.830Z,6.24
2023-04-14T21:41:12.204Z,6.22
2023-04-14T21:43:40.685Z,6.21
2023-04-14T21:46:10.751Z,6.22
2023-04-14T21:48:38.910Z,6.23
2023-04-14T21:51:07.708Z,6.23
2023-04-14T21:53:37.575Z,6.23
2023-04-14T21:56:09.398Z,6.23
2023-04-14T21:58:39.251Z,6.23
2023-04-14T22:01:09.987Z,6.21
2023-04-14T22:03:47.797Z,6.22
2023-04-14T22:06:16.188Z,6.19
2023-04-14T22:08:44.365Z,6.18
2023-04-14T22:11:13.141Z,6.17
2023-04-14T22:13:41.327Z,6.17
2023-04-14T22:16:11.458Z,6.18
2023-04-14T22:18:41.652Z,6.17
2023-04-14T22:21:12.374Z,6.19
2023-04-14T22:23:41.407Z,6.21
2023-04-14T22:26:22.502Z,6.22
2023-04-14T22:28:50.723Z,6.22
2023-04-14T22:31:19.104Z,6.20
2023-04-14T22:33:48.761Z,6.19
2023-04-14T22:36:17.587Z,6.17
2023-04-14T22:38:48.479Z,6.15
2023-04-14T22:41:17.367Z,6.12
2023-04-14T22:43:47.459Z,6.13
2023-04-14T22:46:17.697Z,6.14
2023-04-14T22:48:46.362Z,6.13
2023-04-14T22:51:16.831Z,6.14
2023-04-14T22:53:44.943Z,6.13
2023-04-14T22:56:13.339Z,6.13
2023-04-14T22:58:41.724Z,6.13
2023-04-14T23:01:21.487Z,6.13
2023-04-14T23:03:52.872Z,6.15
2023-04-14T23:06:24.241Z,6.15
2023-04-14T23:08:52.493Z,6.15
2023-04-14T23:11:21.403Z,6.15
2023-04-14T23:13:50.488Z,6.14
2023-04-14T23:16:20.050Z,6.15
2023-04-14T23:18:52.043Z,6.18
2023-04-14T23:21:25.347Z,6.17
2023-04-14T23:23:53.542Z,6.17
2023-04-14T23:26:24.188Z,6.18
2023-04-14T23:28:53.124Z,6.20
2023-04-14T23:31:21.927Z,6.19
2023-04-14T23:33:53.009Z,6.20
2023-04-14T23:36:25.963Z,6.20
2023-04-14T23:38:55.787Z,6.25
2023-04-14T23:41:24.378Z,6.26
2023-04-14T23:43:53.993Z,6.25
2023-04-14T23:46:22.452Z,6.25
2023-04-14T23:48:51.667Z,6.26
2023-04-14T23:51:25.240Z,6.26
2023-04-14T23:53:53.489Z,6.26
2023-04-14T23:56:23.085Z,6.22
2023-04-14T23:58:52.120Z,6.23
